Time;durP1;ratioP1;P1;durP2;ratioP2;P2;SDS_P1;SDS_P2;PMS_P1;PMS_P2;Temp;Humidity;BMP_temperature;BMP_pressure;BME280_temperature;BME280_humidity;BME280_pressure;Samples;Min_cycle;Max_cycle;Signal;HPM_P1;HPM_P2
2024/01/04 00:00:01;;;;;;;72.75;46.60;;;5.20;99.90;;;;;;5099226;28;20039;-71
2024/01/04 00:02:30;;;;;;;74.88;44.90;;;5.20;99.90;;;;;;5084596;28;20060;-73
2024/01/04 00:04:58;;;;;;;78.95;47.40;;;5.00;99.90;;;;;;5110005;28;20031;-73
2024/01/04 00:07:26;;;;;;;83.35;49.20;;;5.10;99.90;;;;;;5105332;28;20088;-72
2024/01/04 00:09:53;;;;;;;79.35;46.65;;;5.00;99.90;;;;;;5103503;28;20032;-73
2024/01/04 00:12:20;;;;;;;89.38;49.42;;;4.90;99.90;;;;;;5079073;28;20097;-73
2024/01/04 00:14:48;;;;;;;92.22;53.63;;;4.80;99.90;;;;;;5108896;28;20059;-74
2024/01/04 00:17:15;;;;;;;86.68;48.33;;;4.80;99.90;;;;;;5102422;28;20032;-74
2024/01/04 00:19:42;;;;;;;81.50;50.30;;;4.80;99.90;;;;;;5085424;28;20052;-73
2024/01/04 00:22:10;;;;;;;96.65;53.35;;;4.80;99.90;;;;;;5092901;28;20047;-73
2024/01/04 00:24:37;;;;;;;105.40;60.80;;;4.70;99.90;;;;;;5099587;28;20049;-72
2024/01/04 00:27:05;;;;;;;107.72;61.25;;;4.70;99.90;;;;;;5103158;28;20040;-73
2024/01/04 00:29:33;;;;;;;97.18;59.35;;;4.70;99.90;;;;;;5100373;28;20039;-74
2024/01/04 00:32:00;;;;;;;109.90;62.50;;;4.80;99.90;;;;;;5096748;28;20032;-74
2024/01/04 00:34:27;;;;;;;110.38;65.00;;;4.80;99.90;;;;;;5100187;28;20034;-74
2024/01/04 00:36:57;;;;;;;121.18;67.32;;;4.70;99.90;;;;;;5101907;28;20038;-74
2024/01/04 00:39:24;;;;;;;120.75;69.13;;;4.70;99.90;;;;;;5088385;28;20364;-74
2024/01/04 00:41:53;;;;;;;122.68;70.13;;;4.80;99.90;;;;;;5086403;28;20122;-75
2024/01/04 00:44:20;;;;;;;113.85;66.43;;;4.80;99.90;;;;;;5102904;28;20068;-74
2024/01/04 00:46:47;;;;;;;111.93;63.40;;;4.90;99.90;;;;;;5105879;28;20385;-74
2024/01/04 00:49:15;;;;;;;118.00;66.18;;;5.00;99.90;;;;;;5079791;28;20120;-73
2024/01/04 00:51:42;;;;;;;119.15;69.05;;;4.90;99.90;;;;;;5107480;28;20043;-73
2024/01/04 00:54:10;;;;;;;123.75;67.38;;;4.90;99.90;;;;;;5105126;28;20044;-73
2024/01/04 00:56:37;;;;;;;109.10;66.10;;;4.80;99.90;;;;;;5107978;28;20556;-74
2024/01/04 00:59:05;;;;;;;101.32;57.03;;;4.80;99.90;;;;;;5103356;28;20039;-73
2024/01/04 01:01:33;;;;;;;98.72;55.42;;;4.70;99.90;;;;;;5110343;28;20031;-73
2024/01/04 01:04:03;;;;;;;100.35;52.35;;;4.70;99.90;;;;;;5110701;28;20055;-72
2024/01/04 01:06:30;;;;;;;;;;;4.60;99.90;;;;;;5098181;28;20028;-75
2024/01/04 01:08:58;;;;;;;75.07;47.15;;;4.50;99.90;;;;;;5107705;28;20407;-73
2024/01/04 01:11:25;;;;;;;73.00;45.30;;;4.60;99.90;;;;;;5110980;28;20064;-74
2024/01/04 01:13:53;;;;;;;70.38;46.05;;;4.70;99.90;;;;;;5101489;28;20045;-73
2024/01/04 01:16:20;;;;;;;80.53;44.92;;;4.70;99.90;;;;;;5109616;28;21441;-74
2024/01/04 01:18:47;;;;;;;76.30;44.72;;;4.70;99.90;;;;;;5105288;28;20421;-75
2024/01/04 01:21:15;;;;;;;76.38;46.00;;;4.60;99.90;;;;;;5107609;28;20043;-75
2024/01/04 01:23:43;;;;;;;85.75;45.17;;;4.50;99.90;;;;;;5107702;28;20131;-73
2024/01/04 01:26:10;;;;;;;71.13;42.67;;;4.40;99.90;;;;;;5087419;28;20059;-73
2024/01/04 01:28:38;;;;;;;69.32;43.83;;;4.40;99.90;;;;;;5083813;28;20043;-73
2024/01/04 01:31:06;;;;;;;72.97;43.90;;;4.40;99.90;;;;;;5104501;28;20038;-74
2024/01/04 01:33:33;;;;;;;80.65;46.22;;;4.50;99.90;;;;;;5068683;28;20047;-73
2024/01/04 01:36:02;;;;;;;76.40;43.08;;;4.60;99.90;;;;;;5103884;28;20355;-73
2024/01/04 01:38:30;;;;;;;75.95;44.25;;;4.60;99.90;;;;;;5091153;28;20044;-73
2024/01/04 01:40:57;;;;;;;81.13;43.00;;;4.60;99.90;;;;;;5100315;28;20052;-74
2024/01/04 01:43:28;;;;;;;75.22;45.00;;;4.60;99.90;;;;;;5100444;28;20112;-73
2024/01/04 01:45:56;;;;;;;80.55;44.75;;;4.70;99.90;;;;;;5077946;28;20467;-73
2024/01/04 01:48:23;;;;;;;68.75;44.00;;;4.70;99.90;;;;;;5110035;28;20039;-74
2024/01/04 01:50:51;;;;;;;72.95;43.72;;;4.80;99.90;;;;;;5104963;28;20130;-74
2024/01/04 01:53:19;;;;;;;69.95;44.10;;;4.80;99.90;;;;;;5098939;28;20043;-75
2024/01/04 01:55:46;;;;;;;79.03;43.88;;;4.80;99.90;;;;;;5098194;28;20437;-74
2024/01/04 01:58:14;;;;;;;82.57;41.70;;;4.70;99.90;;;;;;5105330;28;20055;-75
2024/01/04 02:00:43;;;;;;;67.78;39.45;;;4.50;99.90;;;;;;5101042;28;20135;-75
2024/01/04 02:03:11;;;;;;;67.63;40.83;;;4.20;99.90;;;;;;5109154;28;20051;-75
2024/01/04 02:05:38;;;;;;;68.00;38.60;;;4.40;99.90;;;;;;5104711;28;20044;-74
2024/01/04 02:08:06;;;;;;;80.15;40.60;;;4.50;99.90;;;;;;5082131;28;20113;-74
2024/01/04 02:10:34;;;;;;;71.03;38.40;;;4.70;99.90;;;;;;5106849;28;20035;-73
2024/01/04 02:13:01;;;;;;;74.32;40.65;;;4.70;99.90;;;;;;5098588;28;20035;-73
2024/01/04 02:15:28;;;;;;;69.65;38.72;;;4.60;99.90;;;;;;5094538;28;20044;-74
2024/01/04 02:17:56;;;;;;;69.65;38.17;;;4.80;99.90;;;;;;5097705;28;20043;-74
2024/01/04 02:20:23;;;;;;;73.93;38.08;;;4.80;99.90;;;;;;5101231;28;20040;-74
2024/01/04 02:22:52;;;;;;;70.68;37.78;;;4.50;99.90;;;;;;5092938;28;20044;-73
2024/01/04 02:25:20;;;;;;;62.85;36.60;;;4.50;99.90;;;;;;5083680;28;20115;-74
2024/01/04 02:27:47;;;;;;;67.57;37.10;;;4.50;99.90;;;;;;5101447;28;20036;-75
2024/01/04 02:30:15;;;;;;;60.90;35.40;;;4.50;99.90;;;;;;5100228;28;20034;-75
2024/01/04 02:32:42;;;;;;;57.08;34.47;;;4.50;99.90;;;;;;5100086;28;20035;-75
2024/01/04 02:35:10;;;;;;;56.67;32.22;;;4.40;99.90;;;;;;5100202;28;20050;-73
2024/01/04 02:37:37;;;;;;;58.58;33.10;;;4.40;99.90;;;;;;5076071;28;20038;-73
2024/01/04 02:40:05;;;;;;;48.63;30.63;;;4.30;99.90;;;;;;5094853;28;20108;-73
2024/01/04 02:42:32;;;;;;;45.47;30.75;;;4.40;99.90;;;;;;5078317;28;20060;-73
2024/01/04 02:45:00;;;;;;;69.07;31.02;;;4.40;99.90;;;;;;5097218;28;20070;-73
2024/01/04 02:47:28;;;;;;;60.80;30.05;;;4.10;99.90;;;;;;5097942;28;20028;-73
2024/01/04 02:49:55;;;;;;;54.13;30.13;;;3.90;99.90;;;;;;5098781;28;20784;-72
2024/01/04 02:52:39;;;;;;;51.13;29.27;;;3.80;99.90;;;;;;5092369;28;20209;-73
2024/01/04 02:55:07;;;;;;;48.53;28.45;;;4.00;99.90;;;;;;5098643;28;20099;-73
2024/01/04 02:57:34;;;;;;;51.10;30.92;;;4.10;99.90;;;;;;5100396;28;20062;-72
2024/01/04 03:00:02;;;;;;;47.92;28.75;;;4.20;99.90;;;;;;5098719;28;20036;-73
2024/01/04 03:02:30;;;;;;;48.30;29.08;;;4.00;99.90;;;;;;5080276;28;20127;-72
2024/01/04 03:04:57;;;;;;;60.40;30.67;;;4.00;99.90;;;;;;5101091;28;20373;-72
2024/01/04 03:07:24;;;;;;;48.60;27.83;;;4.00;99.90;;;;;;5094168;28;20040;-72
2024/01/04 03:09:54;;;;;;;55.08;27.67;;;3.80;99.90;;;;;;5082145;28;20109;-73
2024/01/04 03:12:22;;;;;;;54.38;28.00;;;3.70;99.90;;;;;;5093163;28;20370;-73
2024/01/04 03:14:49;;;;;;;53.63;28.20;;;3.80;99.90;;;;;;5095325;28;20051;-74
2024/01/04 03:17:16;;;;;;;42.75;27.10;;;3.70;99.90;;;;;;5100727;28;20028;-73
2024/01/04 03:19:43;;;;;;;49.28;29.35;;;3.80;99.90;;;;;;5074886;28;20084;-73
2024/01/04 03:22:11;;;;;;;51.67;29.02;;;3.90;99.90;;;;;;5099562;28;20085;-73
2024/01/04 03:24:38;;;;;;;47.28;26.42;;;3.80;99.90;;;;;;5101453;28;20488;-72
2024/01/04 03:27:05;;;;;;;52.35;28.02;;;3.80;99.90;;;;;;5104531;28;20035;-72
2024/01/04 03:29:33;;;;;;;51.90;28.42;;;3.70;99.90;;;;;;5102683;28;20031;-73
2024/01/04 03:32:00;;;;;;;45.28;27.73;;;3.80;99.90;;;;;;5097843;28;20069;-73
2024/01/04 03:34:28;;;;;;;45.88;27.20;;;3.90;99.90;;;;;;5101728;28;20482;-73
2024/01/04 03:36:56;;;;;;;43.85;25.70;;;4.00;99.90;;;;;;5103106;28;20486;-72
2024/01/04 03:39:23;;;;;;;50.72;27.90;;;4.10;99.90;;;;;;5102234;28;20032;-73
2024/01/04 03:41:51;;;;;;;43.58;25.38;;;4.10;99.90;;;;;;5105305;28;20044;-72
2024/01/04 03:44:18;;;;;;;44.60;26.10;;;4.20;99.90;;;;;;5084497;28;20036;-72
2024/01/04 03:46:46;;;;;;;45.00;27.13;;;4.20;99.90;;;;;;5081204;28;20044;-72
2024/01/04 03:49:13;;;;;;;49.60;27.48;;;4.10;99.90;;;;;;5103994;28;20028;-74
2024/01/04 03:51:40;;;;;;;41.85;26.38;;;4.10;99.90;;;;;;5104218;28;20236;-73
2024/01/04 03:54:08;;;;;;;42.63;26.05;;;4.20;99.90;;;;;;5100521;28;20042;-72
2024/01/04 03:56:35;;;;;;;45.58;27.35;;;4.10;99.90;;;;;;5103467;28;20039;-72
2024/01/04 03:59:02;;;;;;;40.92;25.25;;;4.10;99.90;;;;;;5101130;28;20032;-72
2024/01/04 04:01:30;;;;;;;41.78;27.60;;;4.10;99.90;;;;;;5100467;28;20032;-72
2024/01/04 04:03:57;;;;;;;41.15;26.88;;;3.90;99.90;;;;;;5104780;28;20476;-74
2024/01/04 04:06:25;;;;;;;45.42;26.25;;;4.00;99.90;;;;;;5101790;28;20038;-73
2024/01/04 04:08:52;;;;;;;45.40;26.20;;;4.00;99.90;;;;;;5100335;28;20039;-71
2024/01/04 04:11:20;;;;;;;44.45;25.88;;;4.10;99.90;;;;;;5081067;28;20387;-73
2024/01/04 04:13:47;;;;;;;41.50;25.27;;;4.10;99.90;;;;;;5101173;28;20383;-73
2024/01/04 04:16:15;;;;;;;38.83;26.40;;;4.00;99.90;;;;;;5099836;28;20044;-74
2024/01/04 04:18:42;;;;;;;43.33;24.70;;;4.00;99.90;;;;;;5098475;28;20048;-73
2024/01/04 04:21:21;;;;;;;45.70;25.88;;;4.00;99.90;;;;;;5102268;28;20036;-72
2024/01/04 04:23:52;;;;;;;49.58;24.58;;;4.00;99.90;;;;;;5100042;28;20038;-73
2024/01/04 04:26:20;;;;;;;43.13;25.38;;;3.70;99.90;;;;;;5099485;28;20397;-74
2024/01/04 04:28:49;;;;;;;42.67;26.30;;;3.70;99.90;;;;;;5096836;28;20039;-73
2024/01/04 04:31:17;;;;;;;45.70;26.40;;;3.80;99.90;;;;;;5097885;28;20043;-74
2024/01/04 04:33:46;;;;;;;41.42;25.90;;;3.80;99.90;;;;;;5100127;28;20036;-73
2024/01/04 04:36:13;;;;;;;42.22;25.35;;;4.00;99.90;;;;;;5096275;28;20043;-74
2024/01/04 04:38:41;;;;;;;42.30;25.38;;;4.00;99.90;;;;;;5082409;28;20928;-73
2024/01/04 04:41:09;;;;;;;49.90;26.30;;;4.00;99.90;;;;;;5104375;28;20031;-74
2024/01/04 04:43:36;;;;;;;40.55;25.60;;;4.10;99.90;;;;;;5064772;28;20120;-74
2024/01/04 04:46:09;;;;;;;41.33;25.30;;;4.10;99.90;;;;;;5101884;28;20137;-75
2024/01/04 04:48:37;;;;;;;39.42;25.15;;;3.90;99.90;;;;;;5080603;28;20041;-76
2024/01/04 04:51:05;;;;;;;40.72;25.30;;;4.00;99.90;;;;;;5081456;28;20051;-73
2024/01/04 04:53:32;;;;;;;43.05;25.35;;;4.10;99.90;;;;;;5095370;28;20479;-74
2024/01/04 04:56:00;;;;;;;48.08;25.83;;;4.20;99.90;;;;;;5095793;28;20048;-75
2024/01/04 04:58:29;;;;;;;43.90;24.40;;;4.20;99.90;;;;;;5102348;28;20040;-73
2024/01/04 05:00:57;;;;;;;42.47;24.00;;;4.00;99.90;;;;;;5099596;28;20097;-75
2024/01/04 05:03:24;;;;;;;39.42;25.95;;;4.00;99.90;;;;;;5100066;28;20502;-74
2024/01/04 05:05:53;;;;;;;39.05;23.92;;;4.10;99.90;;;;;;5101721;28;20082;-75
2024/01/04 05:08:22;;;;;;;42.03;25.38;;;4.20;99.90;;;;;;5098387;28;20032;-74
2024/01/04 05:10:49;;;;;;;64.00;25.98;;;4.20;99.90;;;;;;5099857;28;20063;-74
2024/01/04 05:13:17;;;;;;;36.95;23.73;;;3.80;99.90;;;;;;5083638;28;20059;-75
2024/01/04 05:15:44;;;;;;;39.67;24.67;;;3.80;99.90;;;;;;5045948;28;1273548;-73
2024/01/04 05:18:12;;;;;;;45.60;24.48;;;3.80;99.90;;;;;;5096426;27;20484;-74
2024/01/04 05:20:40;;;;;;;49.33;25.95;;;3.90;99.90;;;;;;5112615;27;20400;-74
2024/01/04 05:23:07;;;;;;;40.78;23.92;;;3.90;99.90;;;;;;5117097;27;20067;-74
2024/01/04 05:25:35;;;;;;;37.80;25.20;;;4.00;99.90;;;;;;5093775;28;20397;-74
2024/01/04 05:28:06;;;;;;;37.42;25.50;;;4.10;99.90;;;;;;5114092;27;20077;-75
2024/01/04 05:30:33;;;;;;;43.85;25.35;;;4.20;99.90;;;;;;5104301;28;20039;-74
2024/01/04 05:33:01;;;;;;;43.05;25.13;;;4.00;99.90;;;;;;5093316;28;20356;-75
2024/01/04 05:35:28;;;;;;;49.15;25.35;;;4.10;99.90;;;;;;5093557;28;20032;-72
2024/01/04 05:37:55;;;;;;;40.15;24.77;;;4.10;99.90;;;;;;5113704;27;20427;-74
2024/01/04 05:40:23;;;;;;;41.50;25.45;;;4.10;99.90;;;;;;5115366;27;20035;-74
2024/01/04 05:42:50;;;;;;;44.22;26.65;;;4.00;99.90;;;;;;5110875;27;20039;-73
2024/01/04 05:45:17;;;;;;;49.92;27.95;;;4.00;99.90;;;;;;5116530;27;20031;-74
2024/01/04 05:47:45;;;;;;;45.25;27.00;;;3.80;99.90;;;;;;5109570;27;20047;-75
2024/01/04 05:50:13;;;;;;;53.47;28.63;;;3.80;99.90;;;;;;5118367;27;20058;-74
2024/01/04 05:52:40;;;;;;;51.10;29.90;;;3.70;99.90;;;;;;5107509;28;20036;-74
2024/01/04 05:55:08;;;;;;;59.30;31.60;;;3.60;99.90;;;;;;5112579;27;20363;-74
2024/01/04 05:57:35;;;;;;;58.33;29.85;;;3.30;99.90;;;;;;5109963;27;20036;-73
2024/01/04 06:00:04;;;;;;;48.92;30.33;;;3.30;99.90;;;;;;5110449;27;20039;-73
2024/01/04 06:02:32;;;;;;;52.20;30.42;;;3.40;99.90;;;;;;5111088;27;20078;-73
2024/01/04 06:04:59;;;;;;;58.40;30.52;;;3.40;99.90;;;;;;5112194;27;20036;-74
2024/01/04 06:07:26;;;;;;;43.63;28.33;;;3.40;99.90;;;;;;5113491;27;20084;-74
2024/01/04 06:09:55;;;;;;;53.47;30.40;;;3.40;99.90;;;;;;5113274;27;20032;-75
2024/01/04 06:12:23;;;;;;;45.28;29.13;;;3.40;99.90;;;;;;5092148;28;20051;-76
2024/01/04 06:14:51;;;;;;;42.85;28.83;;;3.40;99.90;;;;;;5090700;27;20039;-76
2024/01/04 06:17:18;;;;;;;72.45;41.40;;;3.50;99.90;;;;;;5109062;27;20031;-76
2024/01/04 06:19:46;;;;;;;221.02;110.80;;;3.80;99.90;;;;;;5091949;28;20040;-75
2024/01/04 06:22:13;;;;;;;64.10;42.58;;;4.00;99.90;;;;;;5108839;27;20421;-71
2024/01/04 06:24:41;;;;;;;57.65;35.38;;;4.00;99.90;;;;;;5110207;27;20084;-74
2024/01/04 06:27:08;;;;;;;155.05;80.95;;;4.00;99.90;;;;;;5113090;27;20085;-73
2024/01/04 06:29:36;;;;;;;52.08;35.80;;;4.10;99.90;;;;;;5114316;27;20483;-73
2024/01/04 06:32:04;;;;;;;50.42;27.13;;;4.20;99.90;;;;;;5092320;28;20032;-73
2024/01/04 06:34:32;;;;;;;40.38;24.05;;;3.90;99.90;;;;;;5091455;28;20031;-73
2024/01/04 06:36:59;;;;;;;44.42;25.80;;;3.70;99.90;;;;;;5116944;27;20026;-73
2024/01/04 06:39:28;;;;;;;76.95;28.23;;;3.50;99.90;;;;;;5110424;27;20050;-73
2024/01/04 06:41:56;;;;;;;49.58;28.77;;;3.20;99.90;;;;;;5109599;27;20063;-75
2024/01/04 06:44:24;;;;;;;86.82;43.92;;;3.20;99.90;;;;;;5112111;27;20028;-73
2024/01/04 06:47:04;;;;;;;96.65;49.80;;;3.40;99.90;;;;;;5114231;27;20420;-75
2024/01/04 06:49:31;;;;;;;64.75;39.80;;;3.40;99.90;;;;;;5091415;28;20031;-75
2024/01/04 06:51:59;;;;;;;135.20;69.13;;;3.70;99.90;;;;;;5103618;27;20051;-74
2024/01/04 06:54:26;;;;;;;83.25;48.65;;;3.70;99.90;;;;;;5089686;28;20042;-71
2024/01/04 06:56:53;;;;;;;115.13;59.90;;;4.00;99.90;;;;;;5090140;28;20028;-73
2024/01/04 06:59:21;;;;;;;55.10;34.03;;;4.20;99.90;;;;;;5086457;28;20044;-75
2024/01/04 07:01:49;;;;;;;51.92;30.13;;;4.30;99.90;;;;;;5114145;27;20411;-73
2024/01/04 07:04:16;;;;;;;43.30;27.73;;;4.10;99.90;;;;;;5110758;27;20379;-74
2024/01/04 07:06:43;;;;;;;38.22;26.20;;;3.70;99.90;;;;;;5102491;28;20039;-73
2024/01/04 07:09:12;;;;;;;43.80;26.27;;;3.80;99.90;;;;;;5090647;28;20131;-75
2024/01/04 07:11:39;;;;;;;68.18;28.67;;;3.90;99.90;;;;;;5090464;28;20032;-74
2024/01/04 07:14:09;;;;;;;41.88;26.05;;;3.50;99.90;;;;;;5087563;28;20424;-73
2024/01/04 07:16:43;;;;;;;46.65;25.95;;;3.40;99.90;;;;;;5104636;28;20390;-74
2024/01/04 07:19:10;;;;;;;47.03;26.67;;;3.50;99.90;;;;;;5098503;28;20043;-74
2024/01/04 07:21:40;;;;;;;39.75;26.30;;;3.50;99.90;;;;;;5098493;28;20039;-74
2024/01/04 07:24:07;;;;;;;45.35;27.33;;;3.60;99.90;;;;;;5102660;28;20110;-74
2024/01/04 07:26:35;;;;;;;52.00;29.33;;;3.90;99.90;;;;;;5072805;28;20075;-74
2024/01/04 07:29:02;;;;;;;47.85;27.30;;;3.70;99.90;;;;;;5110294;28;20056;-73
2024/01/04 07:31:29;;;;;;;54.83;26.73;;;3.90;99.90;;;;;;5090585;28;20046;-73
2024/01/04 07:33:59;;;;;;;37.33;25.70;;;4.00;99.90;;;;;;5110457;28;20088;-73
2024/01/04 07:36:27;;;;;;;42.75;27.23;;;4.00;99.90;;;;;;5093747;28;20040;-72
2024/01/04 07:38:54;;;;;;;39.28;27.45;;;4.20;99.90;;;;;;5092723;28;20266;-73
2024/01/04 07:41:21;;;;;;;40.42;27.15;;;4.30;99.90;;;;;;5091023;28;20039;-72
2024/01/04 07:43:49;;;;;;;44.72;27.83;;;4.40;99.90;;;;;;5114572;28;20035;-74
2024/01/04 07:46:17;;;;;;;42.83;27.05;;;4.60;99.90;;;;;;5087480;28;20027;-73
2024/01/04 07:48:44;;;;;;;43.08;26.65;;;4.60;99.90;;;;;;5090709;28;20071;-73
2024/01/04 07:51:12;;;;;;;42.63;26.70;;;4.60;99.90;;;;;;5116954;28;20420;-74
2024/01/04 07:53:40;;;;;;;42.33;26.20;;;4.60;99.90;;;;;;5105121;28;20070;-74
2024/01/04 07:56:07;;;;;;;48.28;28.15;;;4.60;99.90;;;;;;5114720;28;20075;-73
2024/01/04 07:58:35;;;;;;;50.22;28.80;;;4.60;99.90;;;;;;5108963;28;20059;-73
2024/01/04 08:01:02;;;;;;;45.33;28.45;;;4.60;99.90;;;;;;5089347;28;20501;-73
2024/01/04 08:03:30;;;;;;;45.42;28.13;;;4.50;99.90;;;;;;5084475;28;20051;-74
2024/01/04 08:05:59;;;;;;;46.67;28.85;;;4.70;99.90;;;;;;5091326;28;20365;-73
2024/01/04 08:08:27;;;;;;;41.10;25.95;;;4.90;99.90;;;;;;5091963;28;20040;-74
2024/01/04 08:10:54;;;;;;;49.03;27.75;;;5.00;99.90;;;;;;5101717;28;20039;-72
2024/01/04 08:13:22;;;;;;;53.47;28.15;;;5.20;99.90;;;;;;5098689;28;20218;-73
2024/01/04 08:15:50;;;;;;;46.83;27.63;;;5.30;99.90;;;;;;5116313;27;20095;-73
2024/01/04 08:18:20;;;;;;;41.00;26.63;;;5.30;99.90;;;;;;5098153;28;20067;-72
2024/01/04 08:20:48;;;;;;;42.20;27.50;;;5.40;99.90;;;;;;5111045;28;20031;-74
2024/01/04 08:23:16;;;;;;;42.75;27.13;;;5.30;99.90;;;;;;5111055;27;20035;-73
2024/01/04 08:25:46;;;;;;;49.88;27.80;;;5.00;99.90;;;;;;5110194;27;20112;-73
2024/01/04 08:28:14;;;;;;;37.90;26.48;;;5.10;99.90;;;;;;5100169;28;20482;-74
2024/01/04 08:30:42;;;;;;;47.20;28.63;;;5.40;99.90;;;;;;5116164;27;20114;-74
2024/01/04 08:33:10;;;;;;;43.63;28.27;;;5.30;99.90;;;;;;5112533;27;20028;-73
2024/01/04 08:35:37;;;;;;;44.60;26.38;;;5.30;99.90;;;;;;5112826;27;20349;-73
2024/01/04 08:38:05;;;;;;;45.20;26.55;;;5.30;99.90;;;;;;5117094;27;20033;-74
2024/01/04 08:40:37;;;;;;;47.40;28.63;;;5.20;99.90;;;;;;5092763;28;20055;-72
2024/01/04 08:43:06;;;;;;;48.15;27.38;;;5.30;99.90;;;;;;5113229;27;20032;-73
2024/01/04 08:45:33;;;;;;;44.97;29.42;;;5.50;99.90;;;;;;5109310;27;20028;-73
2024/01/04 08:48:01;;;;;;;50.25;29.42;;;5.70;99.90;;;;;;5114940;27;20039;-74
2024/01/04 08:50:28;;;;;;;50.50;29.95;;;5.90;99.90;;;;;;5110031;27;20035;-74
2024/01/04 08:52:56;;;;;;;44.65;28.13;;;5.80;99.90;;;;;;5119810;27;20028;-73
2024/01/04 08:55:23;;;;;;;52.85;29.60;;;6.00;99.90;;;;;;5097951;27;20062;-71
2024/01/04 08:57:51;;;;;;;52.33;29.45;;;6.00;99.90;;;;;;5114759;27;20114;-73
2024/01/04 09:00:18;;;;;;;48.60;29.42;;;6.10;99.90;;;;;;5111386;27;20132;-73
2024/01/04 09:02:46;;;;;;;50.47;30.48;;;6.20;99.90;;;;;;5115966;27;20031;-73
2024/01/04 09:05:13;;;;;;;46.88;28.50;;;6.20;99.90;;;;;;5105537;27;20107;-73
2024/01/04 09:07:41;;;;;;;49.28;29.45;;;6.20;99.90;;;;;;5113384;27;20063;-73
2024/01/04 09:10:08;;;;;;;50.38;29.20;;;6.20;99.90;;;;;;5111223;27;20056;-73
2024/01/04 09:12:35;;;;;;;46.55;27.80;;;6.10;99.90;;;;;;5089977;28;20375;-75
2024/01/04 09:15:05;;;;;;;48.08;29.95;;;6.20;99.90;;;;;;5112031;27;20071;-72
2024/01/04 09:17:33;;;;;;;48.30;27.90;;;5.90;99.90;;;;;;5122718;27;20084;-73
2024/01/04 09:20:00;;;;;;;45.40;28.90;;;5.90;99.90;;;;;;5118344;27;20038;-73
2024/01/04 09:22:28;;;;;;;49.88;28.98;;;5.80;99.90;;;;;;5074792;27;20035;-74
2024/01/04 09:24:55;;;;;;;49.85;30.42;;;5.90;99.90;;;;;;5121560;27;20031;-73
2024/01/04 09:27:23;;;;;;;48.38;30.13;;;5.90;99.90;;;;;;5117911;27;20027;-73
2024/01/04 09:29:52;;;;;;;52.30;30.08;;;5.90;99.90;;;;;;5098576;27;20528;-75
2024/01/04 09:32:20;;;;;;;50.22;28.80;;;6.00;99.90;;;;;;5102578;27;20050;-74
2024/01/04 09:34:47;;;;;;;51.67;30.15;;;6.00;99.90;;;;;;5119373;27;20370;-73
2024/01/04 09:37:15;;;;;;;66.32;34.90;;;5.90;99.90;;;;;;5118889;27;20051;-74
2024/01/04 09:39:42;;;;;;;69.20;39.50;;;6.00;99.90;;;;;;5115167;27;20088;-75
2024/01/04 09:42:13;;;;;;;58.50;34.08;;;6.10;99.90;;;;;;5117860;27;20104;-74
2024/01/04 09:44:42;;;;;;;52.78;31.95;;;6.10;99.90;;;;;;5115028;27;20385;-73
2024/01/04 09:47:10;;;;;;;50.75;30.48;;;6.10;99.90;;;;;;5089594;28;20088;-73
2024/01/04 09:49:38;;;;;;;48.63;30.75;;;6.00;99.90;;;;;;5112040;27;20133;-74
2024/01/04 09:52:09;;;;;;;55.63;31.02;;;6.10;99.90;;;;;;5119074;27;20057;-74
2024/01/04 09:54:39;;;;;;;;;;;6.20;99.90;;;;;;5098754;28;20378;-73
2024/01/04 09:57:10;;;;;;;51.25;28.33;;;6.30;99.90;;;;;;5098916;28;19957;-74
2024/01/04 09:59:38;;;;;;;57.58;31.65;;;6.50;99.90;;;;;;5110625;27;20035;-74
2024/01/04 10:02:11;;;;;;;54.30;32.30;;;6.70;99.90;;;;;;5096767;27;20453;-73
2024/01/04 10:04:42;;;;;;;59.78;33.55;;;6.60;99.90;;;;;;5113727;27;20424;-75
2024/01/04 10:07:13;;;;;;;60.25;33.40;;;6.70;99.90;;;;;;5100700;27;20042;-74
2024/01/04 10:09:49;;;;;;;;;;;6.30;99.90;;;;;;5115886;27;20390;-75
2024/01/04 10:12:17;;;;;;;66.88;33.67;;;5.90;99.90;;;;;;5117478;27;20004;-74
2024/01/04 10:15:02;;;;;;;66.22;34.10;;;6.00;99.90;;;;;;5095815;28;20056;-75
2024/01/04 10:17:32;;;;;;;62.83;34.65;;;6.00;99.90;;;;;;5097176;27;20035;-74
2024/01/04 10:20:01;;;;;;;68.18;36.83;;;5.90;99.90;;;;;;5109295;27;20055;-74
2024/01/04 10:22:29;;;;;;;80.70;41.63;;;6.10;99.90;;;;;;5093710;27;20425;-74
2024/01/04 10:25:07;;;;;;;68.45;36.30;;;6.60;99.90;;;;;;5112124;27;20492;-74
2024/01/04 10:27:37;;;;;;;68.95;37.00;;;6.60;99.90;;;;;;5106861;27;20092;-74
2024/01/04 10:30:05;;;;;;;70.47;36.17;;;6.70;99.90;;;;;;5113353;27;20522;-74
2024/01/04 10:32:34;;;;;;;72.65;37.78;;;7.00;99.90;;;;;;5108251;27;20047;-74
2024/01/04 10:35:08;;;;;;;61.50;36.30;;;6.80;99.90;;;;;;5113006;27;20039;-74
2024/01/04 10:38:00;;;;;;;69.25;37.67;;;6.90;99.90;;;;;;5079233;28;20462;-74
2024/01/04 10:40:28;;;;;;;64.93;36.50;;;7.10;99.90;;;;;;5107651;28;20032;-75
2024/01/04 10:43:01;;;;;;;62.80;35.40;;;6.70;99.90;;;;;;5112102;27;20031;-73
2024/01/04 10:45:31;;;;;;;64.43;36.95;;;6.60;99.90;;;;;;5091358;28;20355;-74
2024/01/04 10:47:59;;;;;;;64.97;36.75;;;6.20;99.90;;;;;;5114744;27;20040;-75
2024/01/04 10:50:30;;;;;;;72.35;39.85;;;6.10;99.90;;;;;;5094098;27;20122;-74
2024/01/04 10:52:59;;;;;;;66.82;37.83;;;5.90;99.90;;;;;;5110326;27;20067;-74
2024/01/04 10:55:47;;;;;;;72.00;40.88;;;6.00;99.90;;;;;;5108469;27;20454;-76
2024/01/04 10:58:16;;;;;;;64.55;40.28;;;6.40;99.90;;;;;;5092162;28;20030;-74
2024/01/04 11:00:44;;;;;;;74.60;39.58;;;6.70;99.90;;;;;;5112131;27;20435;-75
2024/01/04 11:03:11;;;;;;;67.57;40.63;;;7.00;99.90;;;;;;5117249;27;20031;-75
2024/01/04 11:05:41;;;;;;;67.05;37.28;;;7.70;99.90;;;;;;5089672;28;20058;-76
2024/01/04 11:08:10;;;;;;;66.10;41.45;;;8.80;99.90;;;;;;5117580;28;20404;-74
2024/01/04 11:10:40;;;;;;;68.65;40.15;;;8.80;99.90;;;;;;5094463;28;20126;-74
2024/01/04 11:13:07;;;;;;;73.80;40.05;;;8.80;99.90;;;;;;5092899;28;20082;-75
2024/01/04 11:15:35;;;;;;;69.90;41.30;;;8.50;99.90;;;;;;5093259;28;20379;-74
2024/01/04 11:18:32;;;;;;;64.07;39.22;;;8.20;99.90;;;;;;5108058;28;20036;-76
2024/01/04 11:21:07;;;;;;;71.03;39.83;;;7.70;99.90;;;;;;5108147;28;20038;-76
2024/01/04 11:24:05;;;;;;;65.20;41.13;;;8.40;99.90;;;;;;5080052;28;20031;-75
2024/01/04 11:26:56;;;;;;;68.95;41.78;;;8.10;99.90;;;;;;5105900;28;20615;-73
2024/01/04 11:29:25;;;;;;;;;;;7.40;99.90;;;;;;5107313;28;20028;-74
2024/01/04 11:31:53;;;;;;;63.17;37.92;;;7.50;99.90;;;;;;5115088;28;19923;-75
2024/01/04 11:34:21;;;;;;;62.25;38.78;;;7.30;99.90;;;;;;5094744;28;20051;-75
2024/01/04 11:36:50;;;;;;;67.47;41.38;;;7.60;99.90;;;;;;5107683;28;20122;-75
2024/01/04 11:39:26;;;;;;;65.00;38.60;;;7.50;99.90;;;;;;5109276;28;20036;-73
2024/01/04 11:41:53;;;;;;;61.17;36.35;;;7.60;99.90;;;;;;5116606;28;20036;-75
2024/01/04 11:44:21;;;;;;;63.55;37.20;;;8.20;99.90;;;;;;5080385;28;20145;-73
2024/01/04 11:46:56;;;;;;;63.40;36.15;;;9.40;99.90;;;;;;5094882;28;20375;-75
2024/01/04 11:49:23;;;;;;;63.03;36.45;;;10.50;99.90;;;;;;5078403;27;20378;-73
2024/01/04 11:51:51;;;;;;;60.75;37.42;;;11.20;99.90;;;;;;5112813;27;20435;-74
2024/01/04 11:54:20;;;;;;;57.70;36.97;;;11.50;99.90;;;;;;5110714;27;20080;-74
2024/01/04 11:56:49;;;;;;;50.65;34.97;;;12.20;99.90;;;;;;5111897;28;20039;-74
2024/01/04 11:59:17;;;;;;;55.80;35.55;;;12.70;99.90;;;;;;5115470;27;20027;-76
2024/01/04 12:01:46;;;;;;;56.05;36.33;;;12.10;99.90;;;;;;5117566;27;20050;-74
2024/01/04 12:04:15;;;;;;;54.92;35.00;;;11.90;99.90;;;;;;5116409;27;20035;-75
2024/01/04 12:06:44;;;;;;;59.17;35.63;;;11.50;99.90;;;;;;5091256;28;20378;-76
2024/01/04 12:09:15;;;;;;;65.55;36.00;;;10.80;99.90;;;;;;5094555;28;20035;-75
2024/01/04 12:11:55;;;;;;;64.72;36.45;;;10.20;99.90;;;;;;5115260;27;20031;-74
2024/01/04 12:14:25;;;;;;;55.60;33.70;;;9.70;99.90;;;;;;5113395;27;20042;-73
2024/01/04 12:16:54;;;;;;;61.90;35.63;;;9.80;99.90;;;;;;5114374;27;20123;-74
2024/01/04 12:19:21;;;;;;;62.97;36.42;;;10.60;99.90;;;;;;5091275;27;20043;-74
2024/01/04 12:21:49;;;;;;;55.30;33.97;;;10.10;99.90;;;;;;5123399;27;20043;-74
2024/01/04 12:24:17;;;;;;;61.20;35.47;;;9.60;99.90;;;;;;5115091;27;20031;-74
2024/01/04 12:26:45;;;;;;;53.42;32.95;;;9.50;99.90;;;;;;5112154;27;20058;-73
2024/01/04 12:29:14;;;;;;;56.55;34.58;;;10.00;99.90;;;;;;5116391;27;20061;-74
2024/01/04 12:31:43;;;;;;;64.53;36.13;;;10.60;99.90;;;;;;5107891;27;20375;-75
2024/01/04 12:34:11;;;;;;;56.17;31.95;;;10.40;99.90;;;;;;5112314;27;20040;-73
2024/01/04 12:36:38;;;;;;;54.53;31.77;;;10.10;99.90;;;;;;5117710;27;20118;-75
2024/01/04 12:39:09;;;;;;;51.97;32.50;;;9.90;99.90;;;;;;5116069;27;20039;-75
2024/01/04 12:41:37;;;;;;;46.40;30.08;;;9.80;99.90;;;;;;5113708;27;20035;-72